Time;durP1;ratioP1;P1;durP2;ratioP2;P2;SDS_P1;SDS_P2;PMS_P1;PMS_P2;Temp;Humidity;BMP_temperature;BMP_pressure;BME280_temperature;BME280_humidity;BME280_pressure;Samples;Min_cycle;Max_cycle;Signal;HPM_P1;HPM_P2
2022/08/24 04:00:57;;;;;;;0.10;0.10;;;17.60;99.90;;;;;;5787224;22;20816;-70
2022/08/24 04:03:24;;;;;;;0.20;0.20;;;17.60;99.90;;;;;;5028157;28;20835;-69
2022/08/24 04:05:51;;;;;;;0.33;0.33;;;17.60;99.90;;;;;;5031941;28;20879;-70
2022/08/24 04:08:19;;;;;;;0.20;0.20;;;17.60;99.90;;;;;;5023961;28;20473;-70
2022/08/24 04:10:47;;;;;;;0.13;0.13;;;17.60;99.90;;;;;;5025773;28;21149;-70
2022/08/24 04:13:14;;;;;;;0.40;0.40;;;17.60;99.90;;;;;;5008202;28;20559;-71
2022/08/24 04:15:42;;;;;;;0.20;0.20;;;17.60;99.90;;;;;;5009738;28;20475;-70
2022/08/24 04:18:11;;;;;;;0.10;0.10;;;17.60;99.90;;;;;;5010793;28;20475;-70
2022/08/24 04:20:39;;;;;;;0.10;0.10;;;17.50;99.90;;;;;;5011899;28;20500;-70
2022/08/24 04:23:07;;;;;;;0.20;0.20;;;17.50;99.90;;;;;;5018257;22;20508;-74
2022/08/24 04:25:40;;;;;;;0.10;0.10;;;17.50;99.90;;;;;;4998334;28;20481;-74
2022/08/24 04:28:07;;;;;;;0.40;0.40;;;17.50;99.90;;;;;;4991755;28;20477;-72
2022/08/24 04:30:33;;;;;;;0.30;0.23;;;17.60;99.90;;;;;;4998595;28;20469;-73
2022/08/24 04:33:00;;;;;;;0.20;0.20;;;17.60;99.90;;;;;;4987773;28;20503;-73
2022/08/24 04:35:28;;;;;;;0.50;0.50;;;17.50;99.90;;;;;;4998814;28;20603;-73
2022/08/24 04:37:55;;;;;;;0.30;0.30;;;17.60;99.90;;;;;;4999301;28;20456;-74
2022/08/24 04:40:22;;;;;;;0.20;0.20;;;17.60;99.90;;;;;;4994083;28;20851;-74
2022/08/24 04:42:49;;;;;;;0.20;0.20;;;17.60;99.90;;;;;;4991900;28;20492;-74
2022/08/24 04:45:16;;;;;;;0.50;0.20;;;17.60;99.90;;;;;;4990840;28;20557;-73
2022/08/24 04:47:44;;;;;;;0.73;0.30;;;17.60;99.90;;;;;;4994704;28;20475;-73
2022/08/24 04:50:11;;;;;;;0.10;0.10;;;17.60;99.90;;;;;;4996920;28;20464;-73
2022/08/24 04:52:40;;;;;;;0.10;0.10;;;17.60;99.90;;;;;;4990579;28;20484;-73
2022/08/24 04:55:08;;;;;;;0.20;0.20;;;17.70;99.90;;;;;;4991939;28;20559;-73
2022/08/24 04:57:35;;;;;;;0.20;0.20;;;17.70;99.90;;;;;;4993603;28;20489;-72
2022/08/24 05:00:02;;;;;;;0.30;0.30;;;17.70;99.90;;;;;;4999622;28;20982;-73
2022/08/24 05:02:29;;;;;;;0.20;0.20;;;17.70;99.90;;;;;;4986870;28;20492;-73
2022/08/24 05:04:57;;;;;;;0.10;0.10;;;17.60;99.90;;;;;;4993395;28;20476;-73
2022/08/24 05:07:24;;;;;;;0.23;0.23;;;17.60;99.90;;;;;;4998546;28;20476;-74
2022/08/24 05:09:52;;;;;;;0.30;0.30;;;17.60;99.90;;;;;;4998938;28;20573;-73
2022/08/24 05:12:19;;;;;;;0.30;0.30;;;17.60;99.90;;;;;;5001152;28;20496;-73
2022/08/24 05:14:46;;;;;;;0.27;0.27;;;17.60;99.90;;;;;;4999354;28;20469;-73
2022/08/24 05:17:13;;;;;;;0.20;0.20;;;17.60;99.90;;;;;;4992726;28;20495;-73
2022/08/24 05:19:40;;;;;;;0.43;0.43;;;17.70;99.90;;;;;;4990496;28;20476;-72
2022/08/24 05:22:06;;;;;;;0.30;0.30;;;17.70;99.90;;;;;;4994312;28;20980;-73
2022/08/24 05:24:33;;;;;;;0.20;0.20;;;17.70;99.90;;;;;;4996556;28;20472;-73
2022/08/24 05:27:02;;;;;;;0.30;0.20;;;17.80;99.90;;;;;;4983683;28;20473;-72
2022/08/24 05:29:32;;;;;;;0.50;0.50;;;17.80;99.90;;;;;;4980862;28;20550;-73
2022/08/24 05:31:59;;;;;;;0.27;0.27;;;17.80;99.90;;;;;;4984709;28;20495;-73
2022/08/24 05:34:26;;;;;;;0.10;0.10;;;17.90;99.90;;;;;;4980236;28;20924;-72
2022/08/24 05:36:53;;;;;;;0.20;0.20;;;17.90;99.90;;;;;;4994572;28;20568;-72
2022/08/24 05:39:20;;;;;;;0.20;0.20;;;18.00;99.90;;;;;;4989240;28;20470;-73
2022/08/24 05:41:48;;;;;;;0.33;0.33;;;18.00;99.90;;;;;;4997305;28;20480;-74
2022/08/24 05:44:18;;;;;;;0.30;0.30;;;18.10;99.90;;;;;;4998356;28;21158;-75
2022/08/24 05:46:45;;;;;;;0.20;0.20;;;18.20;99.90;;;;;;5003753;28;20560;-73
2022/08/24 05:49:12;;;;;;;0.17;0.17;;;18.30;99.90;;;;;;4996618;28;20469;-73
2022/08/24 05:51:41;;;;;;;0.10;0.10;;;18.40;99.90;;;;;;5001882;28;20530;-73
2022/08/24 05:54:08;;;;;;;0.10;0.10;;;18.50;99.90;;;;;;4991457;28;20960;-72
2022/08/24 05:56:35;;;;;;;0.30;0.30;;;18.50;99.90;;;;;;4987577;28;20818;-72
2022/08/24 05:59:01;;;;;;;0.20;0.20;;;18.60;99.90;;;;;;4988040;28;20505;-71
2022/08/24 06:01:30;;;;;;;0.20;0.20;;;18.60;99.90;;;;;;4984611;28;20470;-72
2022/08/24 06:03:58;;;;;;;0.40;0.40;;;18.70;99.90;;;;;;4992966;28;20505;-72
2022/08/24 06:06:25;;;;;;;0.20;0.20;;;18.80;99.90;;;;;;4989428;28;20470;-73
2022/08/24 06:08:56;;;;;;;0.20;0.20;;;18.80;99.90;;;;;;4989936;28;20985;-73
2022/08/24 06:11:25;;;;;;;0.27;0.27;;;18.90;99.90;;;;;;5005014;28;20470;-73
2022/08/24 06:13:52;;;;;;;0.20;0.20;;;19.20;99.90;;;;;;4998431;28;20476;-73
2022/08/24 06:16:19;;;;;;;0.30;0.30;;;19.50;99.90;;;;;;4985561;28;21032;-72
2022/08/24 06:18:48;;;;;;;0.30;0.30;;;20.00;99.90;;;;;;4996246;28;20471;-72
2022/08/24 06:21:17;;;;;;;0.30;0.30;;;20.60;99.90;;;;;;4998632;28;20464;-72
2022/08/24 06:23:44;;;;;;;0.20;0.20;;;20.90;99.90;;;;;;4989885;28;20496;-73
2022/08/24 06:28:57;;;;;;;0.47;0.40;;;21.20;99.90;;;;;;4993356;28;20475;-71
2022/08/24 06:31:24;;;;;;;0.20;0.20;;;21.30;99.90;;;;;;4999726;28;20471;-71
2022/08/24 06:33:53;;;;;;;0.50;0.50;;;21.30;99.90;;;;;;4997786;28;20465;-73
2022/08/24 06:36:20;;;;;;;0.50;0.50;;;21.30;99.90;;;;;;4992297;28;20469;-71
2022/08/24 06:38:47;;;;;;;0.30;0.30;;;21.30;99.90;;;;;;4993715;28;20566;-72
2022/08/24 06:41:14;;;;;;;0.57;0.27;;;21.20;99.90;;;;;;4990314;28;21008;-71
2022/08/24 06:43:41;;;;;;;0.20;0.20;;;21.10;99.90;;;;;;4988795;28;20495;-72
2022/08/24 06:46:08;;;;;;;0.17;0.17;;;21.10;99.90;;;;;;4998160;28;20971;-72
2022/08/24 06:48:35;;;;;;;0.40;0.40;;;21.00;99.90;;;;;;4991995;28;20479;-72
2022/08/24 06:51:09;;;;;;;0.20;0.20;;;21.10;99.90;;;;;;4994987;28;20460;-71
2022/08/24 06:53:36;;;;;;;0.20;0.20;;;21.20;99.90;;;;;;4991426;28;20494;-72
2022/08/24 06:56:04;;;;;;;0.30;0.30;;;21.20;99.90;;;;;;5001208;28;20467;-72
2022/08/24 06:58:31;;;;;;;0.40;0.40;;;21.20;99.90;;;;;;4991772;28;20551;-70
2022/08/24 07:01:07;;;;;;;0.30;0.30;;;21.30;99.90;;;;;;4999230;28;20463;-72
2022/08/24 07:03:33;;;;;;;0.90;0.23;;;21.30;99.90;;;;;;4992560;28;20849;-71
2022/08/24 07:06:02;;;;;;;0.30;0.30;;;21.30;99.90;;;;;;4993581;28;20826;-72
2022/08/24 07:08:30;;;;;;;0.20;0.20;;;21.30;99.90;;;;;;4993809;28;20470;-71
2022/08/24 07:10:57;;;;;;;0.43;0.37;;;21.40;99.90;;;;;;5010121;28;20466;-71
2022/08/24 07:13:24;;;;;;;0.20;0.20;;;21.50;99.90;;;;;;4994693;28;20583;-72
2022/08/24 07:15:51;;;;;;;0.30;0.30;;;21.50;99.90;;;;;;4993335;28;20468;-71
2022/08/24 07:18:19;;;;;;;0.30;0.30;;;21.50;99.90;;;;;;4992371;28;20495;-71
2022/08/24 07:20:47;;;;;;;0.20;0.20;;;21.60;99.90;;;;;;4987284;28;20670;-71
2022/08/24 07:23:14;;;;;;;0.40;0.40;;;21.60;99.90;;;;;;4989051;28;20499;-73
2022/08/24 07:25:42;;;;;;;0.20;0.20;;;21.60;99.90;;;;;;4991971;28;20561;-73
2022/08/24 07:28:09;;;;;;;0.93;0.60;;;21.70;99.90;;;;;;4985738;28;20471;-72
2022/08/24 07:30:37;;;;;;;0.20;0.20;;;21.70;99.90;;;;;;4991329;28;20490;-73
2022/08/24 07:33:04;;;;;;;0.30;0.30;;;21.70;99.90;;;;;;4991537;28;20669;-73
2022/08/24 07:35:32;;;;;;;0.20;0.20;;;21.80;99.90;;;;;;4992713;28;20475;-73
2022/08/24 07:38:00;;;;;;;0.20;0.20;;;21.80;99.90;;;;;;4996136;28;20484;-73
2022/08/24 07:40:28;;;;;;;0.30;0.30;;;21.90;99.90;;;;;;5004502;28;20683;-72
2022/08/24 07:42:57;;;;;;;0.40;0.40;;;22.00;99.90;;;;;;4996707;28;20499;-72
2022/08/24 07:45:25;;;;;;;0.30;0.30;;;22.00;99.90;;;;;;4998962;28;20567;-72
2022/08/24 07:47:52;;;;;;;0.43;0.43;;;22.00;99.90;;;;;;5000646;28;20620;-74
2022/08/24 07:50:19;;;;;;;0.30;0.30;;;22.10;99.90;;;;;;5002755;28;20472;-73
2022/08/24 07:52:46;;;;;;;0.30;0.30;;;22.10;99.90;;;;;;5016895;28;20501;-73
2022/08/24 07:55:14;;;;;;;0.50;0.50;;;22.10;99.90;;;;;;4999620;28;20476;-73
2022/08/24 07:57:43;;;;;;;0.67;0.67;;;22.30;99.90;;;;;;5001712;28;20484;-73
2022/08/24 08:00:15;;;;;;;0.63;0.30;;;22.40;99.90;;;;;;4997185;28;20497;-77
2022/08/24 08:02:45;;;;;;;0.40;0.40;;;22.40;99.90;;;;;;4999110;28;20491;-73
2022/08/24 08:05:12;;;;;;;0.20;0.20;;;22.50;99.90;;;;;;5010865;28;20472;-72
2022/08/24 08:07:39;;;;;;;0.60;0.60;;;22.60;99.90;;;;;;5001530;28;20483;-72
2022/08/24 08:10:07;;;;;;;0.30;0.30;;;22.80;99.90;;;;;;4999344;28;20953;-74
2022/08/24 08:12:35;;;;;;;0.40;0.40;;;22.80;99.90;;;;;;4989654;28;21064;-73
2022/08/24 08:15:02;;;;;;;0.40;0.40;;;22.90;99.90;;;;;;4991260;28;20512;-72
2022/08/24 08:17:30;;;;;;;0.20;0.20;;;22.90;99.90;;;;;;4992130;28;20489;-72
2022/08/24 08:19:57;;;;;;;0.30;0.30;;;23.00;99.90;;;;;;4987290;28;20473;-73
2022/08/24 08:25:08;;;;;;;0.20;0.20;;;23.20;99.90;;;;;;4991103;28;20594;-73
2022/08/24 08:27:35;;;;;;;0.37;0.37;;;23.30;99.90;;;;;;5000539;28;20479;-72
2022/08/24 08:30:02;;;;;;;0.30;0.30;;;23.40;99.90;;;;;;4999109;28;20520;-73
2022/08/24 08:32:30;;;;;;;0.40;0.40;;;23.50;99.90;;;;;;4989355;28;20488;-72
2022/08/24 08:34:57;;;;;;;0.20;0.20;;;23.60;99.90;;;;;;4991944;28;20833;-71
2022/08/24 08:37:24;;;;;;;0.30;0.30;;;23.70;99.90;;;;;;4989654;28;20493;-71
2022/08/24 08:39:51;;;;;;;0.40;0.40;;;23.70;99.90;;;;;;4999589;28;20484;-72
2022/08/24 08:42:41;;;;;;;0.33;0.33;;;23.90;99.90;;;;;;4995626;28;20489;-72
2022/08/24 08:45:35;;;;;;;0.70;0.30;;;23.90;99.90;;;;;;4989759;28;20469;-72
2022/08/24 08:48:42;;;;;;;0.33;0.30;;;24.00;99.90;;;;;;4993456;28;20498;-73
2022/08/24 08:51:48;;;;;;;0.40;0.40;;;24.10;99.90;;;;;;4963905;28;20826;-73
2022/08/24 08:54:46;;;;;;;0.30;0.30;;;24.10;99.90;;;;;;4975568;28;20517;-73
2022/08/24 08:57:34;;;;;;;0.30;0.30;;;24.20;99.90;;;;;;4983575;28;20494;-73
2022/08/24 09:00:10;;;;;;;0.20;0.20;;;24.30;99.90;;;;;;4992084;28;20891;-71
2022/08/24 09:03:11;;;;;;;0.20;0.20;;;24.30;99.90;;;;;;4987494;28;20505;-73
2022/08/24 09:06:17;;;;;;;0.30;0.30;;;24.40;99.90;;;;;;4981882;28;20798;-71
2022/08/24 09:09:10;;;;;;;0.73;0.50;;;24.40;99.90;;;;;;4996958;28;20561;-72
2022/08/24 09:11:50;;;;;;;0.40;0.40;;;24.50;99.90;;;;;;4993189;28;20982;-72
2022/08/24 09:14:49;;;;;;;0.30;0.30;;;24.50;99.90;;;;;;4990274;28;20466;-73
2022/08/24 09:17:45;;;;;;;0.30;0.30;;;24.50;99.90;;;;;;4987870;28;20569;-72
2022/08/24 09:20:27;;;;;;;0.63;0.63;;;24.60;99.90;;;;;;4984031;28;20977;-72
2022/08/24 09:23:07;;;;;;;0.63;0.63;;;24.70;99.90;;;;;;4985549;28;20939;-72
2022/08/24 09:25:46;;;;;;;0.43;0.43;;;24.80;99.90;;;;;;4988787;28;20490;-72
2022/08/24 09:28:20;;;;;;;0.63;0.63;;;24.80;99.90;;;;;;4989745;28;20466;-73
2022/08/24 09:31:04;;;;;;;0.57;0.57;;;24.90;99.90;;;;;;4989323;28;20487;-72
2022/08/24 09:33:37;;;;;;;0.50;0.50;;;25.00;99.90;;;;;;4989919;28;21026;-72
2022/08/24 09:36:10;;;;;;;0.30;0.30;;;25.00;99.90;;;;;;4987102;28;20477;-73
2022/08/24 09:39:04;;;;;;;0.30;0.30;;;25.00;99.90;;;;;;4993268;28;20491;-73
2022/08/24 09:42:08;;;;;;;0.50;0.50;;;25.10;99.90;;;;;;4993187;28;20471;-72
2022/08/24 09:45:19;;;;;;;0.40;0.40;;;25.20;99.90;;;;;;4991860;28;20473;-72
2022/08/24 09:47:58;;;;;;;0.27;0.27;;;25.20;99.90;;;;;;4947019;28;20455;-72
2022/08/24 09:50:57;;;;;;;0.50;0.50;;;25.30;99.90;;;;;;5003228;28;21118;-71
2022/08/24 09:53:54;;;;;;;0.20;0.20;;;25.20;99.90;;;;;;4966427;28;20482;-72
2022/08/24 09:56:47;;;;;;;0.40;0.40;;;25.30;99.90;;;;;;4999502;28;20511;-71
2022/08/24 09:59:47;;;;;;;0.27;0.27;;;25.30;99.90;;;;;;4986485;28;20493;-71
2022/08/24 10:02:33;;;;;;;0.30;0.30;;;25.40;99.90;;;;;;4987704;28;20494;-76
2022/08/24 10:05:12;;;;;;;0.43;0.43;;;25.40;99.90;;;;;;4993589;28;20482;-72
2022/08/24 10:07:49;;;;;;;0.30;0.30;;;25.50;99.90;;;;;;5001848;28;20482;-72
2022/08/24 10:10:29;;;;;;;0.40;0.40;;;25.60;99.90;;;;;;5001074;28;21038;-75
2022/08/24 10:13:05;;;;;;;0.80;0.80;;;25.70;99.90;;;;;;4987489;28;20471;-73
2022/08/24 10:15:37;;;;;;;1.57;0.67;;;25.70;99.90;;;;;;4992549;28;20207;-72
2022/08/24 10:18:28;;;;;;;1.57;0.50;;;25.70;99.90;;;;;;5000623;28;21040;-72
2022/08/24 10:21:12;;;;;;;0.30;0.30;;;25.80;99.90;;;;;;4989411;28;20468;-71
2022/08/24 10:23:50;;;;;;;0.43;0.40;;;25.90;99.90;;;;;;4990535;28;20513;-72
2022/08/24 10:26:31;;;;;;;0.50;0.50;;;25.90;99.90;;;;;;4993930;28;20467;-71
2022/08/24 10:29:17;;;;;;;1.43;0.43;;;25.90;99.90;;;;;;4997606;28;20469;-72
2022/08/24 10:31:58;;;;;;;0.40;0.23;;;26.00;99.90;;;;;;4994321;28;20467;-71
2022/08/24 10:34:49;;;;;;;0.40;0.40;;;26.00;99.90;;;;;;5018719;23;20519;-70
2022/08/24 10:37:48;;;;;;;1.07;0.80;;;26.10;99.90;;;;;;5014560;28;20466;-70
2022/08/24 10:40:37;;;;;;;0.43;0.43;;;26.30;99.90;;;;;;4979113;28;20463;-70
2022/08/24 10:43:42;;;;;;;0.27;0.27;;;26.30;99.90;;;;;;5015437;28;20473;-71
2022/08/24 10:46:36;;;;;;;1.23;0.70;;;26.40;99.90;;;;;;5011650;28;20572;-70
2022/08/24 10:49:36;;;;;;;0.30;0.30;;;26.40;99.90;;;;;;5007792;28;20819;-70
2022/08/24 10:52:41;;;;;;;0.90;0.90;;;26.60;99.90;;;;;;5009875;28;20472;-70
2022/08/24 10:55:18;;;;;;;0.77;0.77;;;26.60;99.90;;;;;;5006131;28;20493;-70
2022/08/24 10:57:57;;;;;;;0.30;0.30;;;26.60;99.90;;;;;;5007209;28;20490;-70
2022/08/24 11:00:29;;;;;;;0.50;0.33;;;26.70;99.90;;;;;;5013086;28;20470;-71
2022/08/24 11:03:09;;;;;;;0.37;0.37;;;26.70;99.90;;;;;;5011649;28;21859;-70
2022/08/24 11:05:42;;;;;;;0.40;0.40;;;26.80;99.90;;;;;;5011901;28;20853;-71
2022/08/24 11:08:18;;;;;;;0.50;0.50;;;26.70;99.90;;;;;;5011721;28;20473;-71
2022/08/24 11:10:45;;;;;;;0.40;0.40;;;26.80;99.90;;;;;;5009597;28;20954;-71
2022/08/24 11:13:21;;;;;;;0.50;0.50;;;26.90;99.90;;;;;;5010731;28;20806;-71
2022/08/24 11:15:51;;;;;;;0.50;0.50;;;27.00;99.90;;;;;;5011796;28;20597;-72
2022/08/24 11:18:18;;;;;;;1.13;0.67;;;27.10;99.90;;;;;;5009721;28;20486;-71
2022/08/24 11:20:48;;;;;;;0.40;0.40;;;27.10;99.90;;;;;;5012240;28;20865;-71
2022/08/24 11:23:19;;;;;;;1.43;0.50;;;27.10;99.90;;;;;;5012103;28;20496;-72
2022/08/24 11:25:56;;;;;;;0.50;0.50;;;27.00;99.90;;;;;;5011469;28;20513;-70
2022/08/24 11:28:29;;;;;;;0.50;0.50;;;27.00;99.90;;;;;;5011603;28;20492;-71
2022/08/24 11:30:58;;;;;;;1.17;0.43;;;27.10;99.90;;;;;;5011665;28;20509;-71
2022/08/24 11:33:29;;;;;;;0.43;0.30;;;27.10;99.90;;;;;;5010529;28;20471;-71
2022/08/24 11:35:56;;;;;;;0.70;0.70;;;27.20;99.90;;;;;;5011363;28;20501;-71
2022/08/24 11:38:26;;;;;;;1.07;0.60;;;27.40;99.90;;;;;;5008398;28;20493;-71
2022/08/24 11:40:57;;;;;;;0.60;0.60;;;27.40;99.90;;;;;;5006805;28;20462;-70
2022/08/24 11:43:53;;;;;;;0.90;0.90;;;27.40;99.90;;;;;;5010929;28;20458;-70
2022/08/24 11:46:30;;;;;;;0.43;0.43;;;27.40;99.90;;;;;;5008754;28;20481;-71
2022/08/24 11:49:07;;;;;;;0.40;0.40;;;27.40;99.90;;;;;;5012982;28;20529;-70
2022/08/24 11:51:44;;;;;;;0.50;0.50;;;27.50;99.90;;;;;;5011501;28;20528;-70
2022/08/24 11:54:18;;;;;;;0.60;0.60;;;27.50;99.90;;;;;;5012538;28;20482;-70
2022/08/24 11:56:51;;;;;;;0.40;0.40;;;27.50;99.90;;;;;;5011047;28;20455;-69
2022/08/24 11:59:29;;;;;;;0.50;0.50;;;27.40;99.90;;;;;;5012558;28;20947;-68
2022/08/24 12:02:02;;;;;;;0.73;0.40;;;27.40;99.90;;;;;;5009421;28;20469;-71
2022/08/24 12:04:44;;;;;;;0.33;0.33;;;27.50;99.90;;;;;;5011679;28;20470;-71
2022/08/24 12:07:20;;;;;;;0.30;0.30;;;27.60;99.90;;;;;;5011220;28;20572;-71
2022/08/24 12:10:04;;;;;;;0.33;0.33;;;27.60;99.90;;;;;;5004353;28;20525;-71
2022/08/24 12:12:39;;;;;;;0.30;0.30;;;27.60;99.90;;;;;;5011491;28;20526;-71
2022/08/24 12:15:10;;;;;;;0.30;0.30;;;27.60;99.90;;;;;;5010571;28;20486;-71
2022/08/24 12:17:44;;;;;;;0.40;0.30;;;27.40;99.90;;;;;;5011360;28;20447;-70
2022/08/24 12:20:26;;;;;;;0.57;0.57;;;27.40;99.90;;;;;;5011885;28;20495;-71
2022/08/24 12:22:57;;;;;;;0.50;0.50;;;27.50;99.90;;;;;;5011641;28;20466;-70
2022/08/24 12:28:14;;;;;;;0.30;0.30;;;27.60;99.90;;;;;;5010980;28;20565;-70
2022/08/24 12:30:41;;;;;;;0.50;0.50;;;27.70;99.90;;;;;;5008204;28;20628;-70
2022/08/24 12:33:13;;;;;;;0.40;0.40;;;27.80;99.90;;;;;;5002216;28;20494;-70
2022/08/24 12:35:45;;;;;;;0.47;0.47;;;27.80;99.90;;;;;;5010567;28;20498;-70
2022/08/24 12:38:18;;;;;;;0.40;0.40;;;27.80;99.90;;;;;;5009691;28;20489;-70
2022/08/24 12:40:53;;;;;;;0.30;0.30;;;27.80;99.90;;;;;;4999480;28;20462;-71
2022/08/24 12:43:25;;;;;;;1.40;0.33;;;27.80;99.90;;;;;;5006081;28;20472;-71
2022/08/24 12:45:55;;;;;;;0.60;0.60;;;27.70;99.90;;;;;;5002010;28;20498;-71
2022/08/24 12:48:30;;;;;;;0.60;0.60;;;27.80;99.90;;;;;;5009716;28;20462;-70
2022/08/24 12:51:10;;;;;;;0.60;0.60;;;27.90;99.90;;;;;;5007747;28;20850;-70
2022/08/24 12:54:01;;;;;;;0.40;0.40;;;27.90;99.90;;;;;;5008329;28;20458;-71
2022/08/24 12:56:57;;;;;;;0.30;0.30;;;28.00;99.90;;;;;;5006618;28;20533;-70
2022/08/24 12:59:26;;;;;;;0.80;0.80;;;28.00;99.90;;;;;;5008397;28;20483;-71
2022/08/24 13:02:01;;;;;;;0.80;0.80;;;28.00;99.90;;;;;;5008025;28;20466;-70
2022/08/24 13:04:37;;;;;;;0.40;0.40;;;28.10;99.90;;;;;;5007014;28;20497;-70
2022/08/24 13:07:09;;;;;;;0.50;0.50;;;28.10;99.60;;;;;;5009123;28;20573;-70
2022/08/24 13:09:38;;;;;;;0.50;0.50;;;28.00;99.90;;;;;;5009670;28;20481;-70
2022/08/24 13:12:43;;;;;;;0.30;0.30;;;27.90;99.90;;;;;;5010363;28;20478;-69
2022/08/24 13:15:52;;;;;;;0.50;0.50;;;27.90;99.50;;;;;;5006813;28;20597;-70
2022/08/24 13:19:09;;;;;;;0.40;0.40;;;27.90;99.80;;;;;;5008066;28;20827;-69
2022/08/24 13:21:49;;;;;;;0.30;0.30;;;27.90;99.90;;;;;;5010681;28;20462;-69
2022/08/24 13:24:45;;;;;;;0.50;0.50;;;28.00;99.90;;;;;;5008758;28;20555;-70
2022/08/24 13:27:49;;;;;;;0.60;0.40;;;28.10;99.90;;;;;;4987925;28;20549;-69
2022/08/24 13:30:27;;;;;;;0.97;0.97;;;28.10;99.70;;;;;;5002882;28;20546;-70
2022/08/24 13:33:04;;;;;;;0.33;0.33;;;28.10;99.80;;;;;;5009754;28;20532;-70
2022/08/24 13:35:52;;;;;;;0.33;0.33;;;28.10;99.20;;;;;;5006055;28;20497;-70
2022/08/24 13:38:54;;;;;;;0.60;0.60;;;28.10;98.90;;;;;;5007454;28;20462;-70
2022/08/24 13:41:47;;;;;;;0.50;0.50;;;28.10;98.10;;;;;;5009737;28;21019;-70
2022/08/24 13:44:23;;;;;;;0.37;0.37;;;28.20;98.20;;;;;;5010973;28;20614;-70
2022/08/24 13:47:01;;;;;;;0.30;0.30;;;28.30;97.50;;;;;;5008678;28;20466;-70
2022/08/24 13:49:42;;;;;;;0.40;0.40;;;28.20;97.40;;;;;;5010238;28;20946;-70
2022/08/24 13:52:19;;;;;;;0.40;0.40;;;28.20;97.80;;;;;;5009165;28;20485;-69
2022/08/24 13:55:22;;;;;;;1.17;0.43;;;28.20;97.90;;;;;;5011684;28;20488;-70
2022/08/24 13:57:52;;;;;;;0.70;0.70;;;28.20;96.90;;;;;;5009936;28;20808;-70
2022/08/24 14:00:43;;;;;;;0.50;0.40;;;28.20;96.80;;;;;;5008908;28;20971;-69
2022/08/24 14:03:22;;;;;;;0.40;0.40;;;28.20;95.80;;;;;;5006858;28;20466;-70
2022/08/24 14:05:55;;;;;;;0.20;0.20;;;28.20;95.00;;;;;;4996813;28;20466;-70
2022/08/24 14:08:39;;;;;;;0.53;0.53;;;28.20;95.40;;;;;;5008571;28;20474;-70
2022/08/24 14:11:11;;;;;;;0.37;0.37;;;28.20;95.00;;;;;;5009621;28;20480;-71
2022/08/24 14:13:56;;;;;;;0.67;0.67;;;28.30;95.20;;;;;;5009118;28;20470;-71
2022/08/24 14:19:39;;;;;;;0.30;0.30;;;28.20;94.70;;;;;;5010664;28;20628;-71
2022/08/24 14:22:19;;;;;;;0.33;0.33;;;28.30;93.90;;;;;;5009123;28;20473;-70
2022/08/24 14:24:53;;;;;;;0.33;0.33;;;28.30;93.50;;;;;;5008658;28;20509;-71
2022/08/24 14:27:41;;;;;;;0.40;0.40;;;28.30;92.90;;;;;;5008317;28;20847;-72
2022/08/24 14:30:45;;;;;;;0.40;0.40;;;28.20;92.90;;;;;;5003484;28;20458;-71
2022/08/24 14:33:20;;;;;;;0.20;0.20;;;28.10;92.80;;;;;;5000974;28;20834;-71
2022/08/24 14:36:07;;;;;;;0.37;0.37;;;28.10;92.80;;;;;;5009009;28;20493;-70
2022/08/24 14:38:58;;;;;;;0.20;0.20;;;28.20;92.60;;;;;;5008620;28;20478;-70
2022/08/24 14:42:02;;;;;;;0.30;0.27;;;28.20;92.20;;;;;;5005434;28;21041;-72
2022/08/24 14:44:50;;;;;;;0.90;0.37;;;28.20;92.30;;;;;;4992209;28;21006;-71
2022/08/24 14:47:31;;;;;;;0.30;0.30;;;28.30;92.30;;;;;;5008515;28;20913;-71
2022/08/24 14:50:07;;;;;;;0.40;0.40;;;28.30;92.90;;;;;;5008534;28;20476;-71
2022/08/24 14:52:54;;;;;;;0.40;0.40;;;28.40;93.10;;;;;;5007901;28;20481;-71
2022/08/24 14:55:30;;;;;;;0.30;0.30;;;28.40;93.30;;;;;;5009836;28;20517;-70
2022/08/24 14:58:08;;;;;;;0.20;0.20;;;28.40;93.30;;;;;;5008389;28;20474;-71
2022/08/24 15:00:55;;;;;;;0.40;0.40;;;28.40;93.10;;;;;;5008762;28;20490;-71
2022/08/24 15:03:49;;;;;;;0.53;0.40;;;28.40;93.30;;;;;;5006622;28;20479;-71
2022/08/24 15:06:23;;;;;;;0.53;0.43;;;28.40;92.80;;;;;;5010445;28;20798;-71
2022/08/24 15:08:51;;;;;;;0.37;0.37;;;28.50;93.20;;;;;;5012229;28;20469;-71
2022/08/24 15:11:23;;;;;;;0.30;0.30;;;28.50;93.40;;;;;;5012583;28;20572;-71
2022/08/24 15:13:54;;;;;;;0.60;0.60;;;28.50;93.50;;;;;;5009121;28;20486;-71
2022/08/24 15:16:29;;;;;;;0.50;0.30;;;28.40;93.30;;;;;;5008897;28;20481;-70
2022/08/24 15:19:04;;;;;;;0.40;0.40;;;28.50;93.20;;;;;;5010569;28;20962;-70
2022/08/24 15:21:43;;;;;;;0.30;0.30;;;28.50;92.90;;;;;;5012832;28;20492;-69
2022/08/24 15:24:28;;;;;;;0.70;0.70;;;28.60;92.60;;;;;;5012201;28;20490;-69
2022/08/24 15:27:07;;;;;;;0.30;0.30;;;28.50;93.00;;;;;;5007783;28;20462;-70
2022/08/24 15:29:35;;;;;;;0.30;0.30;;;28.50;92.40;;;;;;5001394;28;20466;-70
2022/08/24 15:32:07;;;;;;;0.27;0.27;;;28.50;92.30;;;;;;5007619;28;20467;-70
2022/08/24 15:34:44;;;;;;;0.43;0.37;;;28.50;92.70;;;;;;5010848;28;20501;-70
2022/08/24 15:37:12;;;;;;;0.20;0.20;;;28.50;92.40;;;;;;5011250;28;20939;-69
2022/08/24 15:39:40;;;;;;;0.70;0.57;;;28.50;92.20;;;;;;5010980;28;21018;-69
2022/08/24 15:42:10;;;;;;;0.80;0.80;;;28.50;92.20;;;;;;5010577;28;20838;-69
2022/08/24 15:44:39;;;;;;;0.30;0.30;;;28.50;92.10;;;;;;5011349;28;20533;-69
2022/08/24 15:47:18;;;;;;;0.40;0.40;;;28.40;91.90;;;;;;5011078;28;20474;-69
2022/08/24 15:49:50;;;;;;;0.40;0.40;;;28.50;91.70;;;;;;5011434;28;20469;-69
2022/08/24 15:52:42;;;;;;;0.37;0.37;;;28.40;91.70;;;;;;5010752;28;20467;-70
2022/08/24 15:55:27;;;;;;;0.20;0.20;;;28.40;91.40;;;;;;5009854;28;20482;-70
2022/08/24 15:57:54;;;;;;;0.50;0.50;;;28.50;90.90;;;;;;5010976;28;20474;-69
2022/08/24 16:06:19;;;;;;;1.03;0.47;;;28.40;90.50;;;;;;5083421;27;20560;-70
2022/08/24 16:08:56;;;;;;;0.40;0.40;;;28.50;90.80;;;;;;5050930;28;20467;-70
2022/08/24 16:11:29;;;;;;;0.40;0.20;;;28.40;90.20;;;;;;5061382;28;20812;-69
2022/08/24 16:13:56;;;;;;;0.77;0.63;;;28.40;89.60;;;;;;5067450;28;20762;-70
2022/08/24 16:16:33;;;;;;;0.30;0.30;;;28.40;89.60;;;;;;5069868;28;20479;-70
2022/08/24 16:19:01;;;;;;;0.40;0.40;;;28.40;88.60;;;;;;5066141;28;20468;-71
2022/08/24 16:21:34;;;;;;;0.30;0.30;;;28.30;89.10;;;;;;5072669;28;20474;-70
2022/08/24 16:24:04;;;;;;;0.50;0.50;;;28.30;90.00;;;;;;5072898;28;20483;-70
2022/08/24 16:26:33;;;;;;;0.37;0.37;;;28.40;90.30;;;;;;5068141;28;20459;-71
2022/08/24 16:29:00;;;;;;;0.40;0.40;;;28.30;90.40;;;;;;5064061;28;20827;-70
2022/08/24 16:31:47;;;;;;;0.40;0.40;;;28.30;90.70;;;;;;5057333;28;20486;-69
2022/08/24 16:34:21;;;;;;;0.40;0.40;;;28.30;91.40;;;;;;5044794;28;21157;-69
2022/08/24 16:36:49;;;;;;;0.20;0.20;;;28.30;91.70;;;;;;5051507;28;20464;-69
2022/08/24 16:39:16;;;;;;;0.40;0.40;;;28.20;91.70;;;;;;5071672;28;20487;-69
2022/08/24 16:41:43;;;;;;;0.30;0.30;;;28.20;91.80;;;;;;5066226;28;20458;-70
2022/08/24 16:44:11;;;;;;;0.40;0.40;;;28.10;92.10;;;;;;5052578;28;20492;-70
2022/08/24 16:46:39;;;;;;;0.40;0.40;;;28.10;92.20;;;;;;5069740;28;20463;-70
2022/08/24 16:49:06;;;;;;;0.47;0.47;;;28.00;92.40;;;;;;5054513;28;20456;-71
2022/08/24 16:51:33;;;;;;;0.40;0.40;;;28.00;92.80;;;;;;5060946;28;20476;-71
2022/08/24 16:54:01;;;;;;;0.47;0.37;;;28.00;93.40;;;;;;5069998;28;20968;-71
2022/08/24 16:56:28;;;;;;;0.50;0.50;;;27.90;93.40;;;;;;5051446;28;20549;-71
2022/08/24 16:58:55;;;;;;;0.27;0.27;;;27.80;93.70;;;;;;5069242;28;20478;-72
2022/08/24 17:01:22;;;;;;;0.30;0.30;;;27.80;93.40;;;;;;5063717;28;20464;-71
2022/08/24 17:03:49;;;;;;;0.40;0.40;;;27.70;93.70;;;;;;5065784;28;20492;-71
2022/08/24 17:06:17;;;;;;;0.20;0.20;;;27.60;93.80;;;;;;5049102;28;20500;-72
2022/08/24 17:08:46;;;;;;;0.73;0.53;;;27.60;93.30;;;;;;5063693;28;20846;-71
2022/08/24 17:11:14;;;;;;;0.50;0.50;;;27.50;93.30;;;;;;5058416;28;20471;-71
2022/08/24 17:13:41;;;;;;;0.27;0.27;;;27.40;93.00;;;;;;5061916;28;20828;-72
2022/08/24 17:16:10;;;;;;;0.30;0.20;;;27.30;93.20;;;;;;5050330;28;20491;-71
2022/08/24 17:18:37;;;;;;;0.20;0.20;;;27.20;93.00;;;;;;5031444;28;20564;-71
2022/08/24 17:21:05;;;;;;;0.30;0.30;;;27.20;93.00;;;;;;5037888;28;20473;-71
2022/08/24 17:23:32;;;;;;;0.93;0.20;;;27.10;92.70;;;;;;5043944;28;20496;-71
2022/08/24 17:26:00;;;;;;;1.03;0.40;;;27.00;92.70;;;;;;5048952;28;20495;-71
2022/08/24 17:28:28;;;;;;;0.30;0.30;;;26.90;92.90;;;;;;5046025;28;20479;-71
2022/08/24 17:30:55;;;;;;;0.20;0.20;;;26.90;93.00;;;;;;5041219;28;20484;-70
2022/08/24 17:33:22;;;;;;;0.40;0.40;;;26.80;93.00;;;;;;5039451;28;20473;-71
2022/08/24 17:35:50;;;;;;;0.30;0.30;;;26.70;93.20;;;;;;5034040;28;20835;-71
2022/08/24 17:38:17;;;;;;;0.30;0.30;;;26.70;93.30;;;;;;5039556;28;20477;-71
2022/08/24 17:40:44;;;;;;;0.60;0.30;;;26.60;93.60;;;;;;5046387;28;20493;-71
2022/08/24 17:43:11;;;;;;;0.40;0.40;;;26.60;93.80;;;;;;5045386;28;20483;-71
2022/08/24 17:45:41;;;;;;;0.30;0.30;;;26.50;93.80;;;;;;5041444;28;20512;-71